createdAt,value
2023-11-11T00:00:51.712Z,7.29
2023-11-11T00:01:56.691Z,7.23
2023-11-11T00:02:59.233Z,7.21
2023-11-11T00:04:01.892Z,7.17
2023-11-11T00:05:04.970Z,7.11
2023-11-11T00:06:07.378Z,7.13
2023-11-11T00:07:10.351Z,7.17
2023-11-11T00:08:12.645Z,7.19
2023-11-11T00:09:15.202Z,7.11
2023-11-11T00:10:17.992Z,7.10
2023-11-11T00:11:21.371Z,7.12
2023-11-11T00:12:23.735Z,7.20
2023-11-11T00:13:26.134Z,7.16
2023-11-11T00:14:28.397Z,7.27
2023-11-11T00:15:33.186Z,7.18
2023-11-11T00:16:36.135Z,7.13
2023-11-11T00:17:38.598Z,7.24
2023-11-11T00:18:44.435Z,7.19
2023-11-11T00:19:48.431Z,7.24
2023-11-11T00:20:50.822Z,7.33
2023-11-11T00:21:54.712Z,7.19
2023-11-11T00:22:57.276Z,7.20
2023-11-11T00:23:59.583Z,7.31
2023-11-11T00:25:01.838Z,7.22
2023-11-11T00:26:05.201Z,7.22
2023-11-11T00:27:08.015Z,7.15
2023-11-11T00:28:11.364Z,7.14
2023-11-11T00:29:13.647Z,7.23
2023-11-11T00:30:17.272Z,7.27
2023-11-11T00:31:19.801Z,7.17
2023-11-11T00:32:22.008Z,7.18
2023-11-11T00:33:24.565Z,7.17
2023-11-11T00:34:26.985Z,7.18
2023-11-11T00:35:29.434Z,7.17
2023-11-11T00:36:31.792Z,7.08
2023-11-11T00:37:34.066Z,7.18
2023-11-11T00:38:37.283Z,7.11
2023-11-11T00:39:39.739Z,7.05
2023-11-11T00:40:42.821Z,7.07
2023-11-11T00:41:45.181Z,7.04
2023-11-11T00:42:47.497Z,7.03
2023-11-11T00:43:49.800Z,7.15
2023-11-11T00:44:52.337Z,7.15
2023-11-11T00:45:54.746Z,7.22
2023-11-11T00:46:57.534Z,7.17
2023-11-11T00:48:01.931Z,7.23
2023-11-11T00:49:05.052Z,7.18
2023-11-11T00:50:10.418Z,7.15
2023-11-11T00:51:12.928Z,7.13
2023-11-11T00:52:15.324Z,7.10
2023-11-11T00:53:17.563Z,7.05
2023-11-11T00:54:19.836Z,7.05
2023-11-11T00:55:22.748Z,7.14
2023-11-11T00:56:25.272Z,7.06
2023-11-11T00:57:27.659Z,7.10
2023-11-11T00:58:31.251Z,7.11
2023-11-11T00:59:33.909Z,7.04
2023-11-11T01:00:36.317Z,7.04
2023-11-11T01:01:38.702Z,7.22
2023-11-11T01:02:41.929Z,7.11
2023-11-11T01:03:44.477Z,7.18
2023-11-11T01:04:47.035Z,7.19
2023-11-11T01:05:49.464Z,7.24
2023-11-11T01:06:51.851Z,7.14
2023-11-11T01:07:54.647Z,7.11
2023-11-11T01:08:56.941Z,7.20
2023-11-11T01:10:00.032Z,7.22
2023-11-11T01:11:08.498Z,7.04
2023-11-11T01:12:15.496Z,7.08
2023-11-11T01:13:39.281Z,7.06
2023-11-11T01:14:52.676Z,7.27
2023-11-11T01:16:01.641Z,7.08
2023-11-11T01:17:09.810Z,7.11
2023-11-11T01:18:19.318Z,7.16
2023-11-11T01:19:23.402Z,7.18
2023-11-11T01:20:30.699Z,7.05
2023-11-11T01:21:34.032Z,7.08
2023-11-11T01:22:37.993Z,7.26
2023-11-11T01:23:43.680Z,7.08
2023-11-11T01:24:47.511Z,7.08
2023-11-11T01:25:51.578Z,7.10
2023-11-11T01:26:57.348Z,6.98
2023-11-11T01:28:01.594Z,6.99
2023-11-11T01:29:10.762Z,7.12
2023-11-11T01:30:25.407Z,7.11
2023-11-11T01:31:29.420Z,7.08
2023-11-11T01:32:38.153Z,6.96
2023-11-11T01:33:44.642Z,6.90
2023-11-11T01:34:46.888Z,6.89
2023-11-11T01:35:52.254Z,6.93
2023-11-11T01:36:59.204Z,6.85
2023-11-11T01:38:20.210Z,6.85
2023-11-11T01:39:28.581Z,6.87
2023-11-11T01:40:31.487Z,6.83
2023-11-11T01:41:34.712Z,6.78
2023-11-11T01:42:36.960Z,6.87
2023-11-11T01:43:44.788Z,6.65
2023-11-11T01:44:47.372Z,6.66
2023-11-11T01:45:59.205Z,6.68
2023-11-11T01:47:06.775Z,6.59
2023-11-11T01:48:19.056Z,6.62
2023-11-11T01:49:23.675Z,6.51
2023-11-11T01:50:27.837Z,6.42
2023-11-11T01:51:32.150Z,6.59
2023-11-11T01:52:38.001Z,6.44
2023-11-11T01:53:44.135Z,6.46
2023-11-11T01:54:46.737Z,6.46
2023-11-11T01:55:55.898Z,6.46
2023-11-11T01:56:59.137Z,6.42
2023-11-11T01:58:03.967Z,6.61
2023-11-11T02:00:37.232Z,6.50
2023-11-11T02:02:03.860Z,6.47
2023-11-11T02:03:10.072Z,6.55
2023-11-11T02:04:14.085Z,6.53
2023-11-11T02:05:17.987Z,6.52
2023-11-11T02:06:23.931Z,6.59
2023-11-11T02:07:26.357Z,6.47
2023-11-11T02:08:35.075Z,6.59
2023-11-11T02:09:37.978Z,6.67
2023-11-11T02:10:40.946Z,6.74
2023-11-11T02:11:43.305Z,6.53
2023-11-11T02:12:46.108Z,6.81
2023-11-11T02:13:48.716Z,6.67
2023-11-11T02:14:51.417Z,6.72
2023-11-11T02:15:55.126Z,6.73
2023-11-11T02:16:58.430Z,6.66
2023-11-11T02:18:06.088Z,6.74
2023-11-11T02:19:13.040Z,6.72
2023-11-11T02:20:15.756Z,6.78
2023-11-11T02:21:18.388Z,6.51
2023-11-11T02:22:21.995Z,6.45
2023-11-11T02:23:35.354Z,6.47
2023-11-11T02:24:41.694Z,6.35
2023-11-11T02:25:44.939Z,6.41
2023-11-11T02:26:49.209Z,6.40
2023-11-11T02:27:56.876Z,6.42
2023-11-11T02:28:59.682Z,6.44
2023-11-11T02:31:31.939Z,6.61
2023-11-11T02:32:41.957Z,6.73
2023-11-11T02:33:49.043Z,6.75
2023-11-11T02:34:55.718Z,6.44
2023-11-11T02:36:07.804Z,6.37
2023-11-11T02:37:11.982Z,6.48
2023-11-11T02:38:14.968Z,6.48
2023-11-11T02:39:17.358Z,6.50
2023-11-11T02:40:25.363Z,6.25
2023-11-11T02:41:27.875Z,6.20
2023-11-11T02:42:30.990Z,6.20
2023-11-11T02:43:33.660Z,6.29
2023-11-11T02:44:36.664Z,6.44
2023-11-11T02:45:44.534Z,6.53
2023-11-11T02:46:46.764Z,6.58
2023-11-11T02:47:49.372Z,6.50
2023-11-11T02:48:52.569Z,6.67
2023-11-11T02:49:55.403Z,6.56
2023-11-11T02:50:57.869Z,6.39
2023-11-11T02:52:03.881Z,6.39
2023-11-11T02:53:06.169Z,6.40
2023-11-11T02:54:08.391Z,6.50
2023-11-11T02:55:10.850Z,6.55
2023-11-11T02:56:13.132Z,6.61
2023-11-11T02:57:15.637Z,6.45
2023-11-11T02:58:19.050Z,6.59
2023-11-11T02:59:21.317Z,6.49
2023-11-11T03:02:12.471Z,6.57
2023-11-11T03:03:14.884Z,6.50
2023-11-11T03:04:17.477Z,6.49
2023-11-11T03:05:19.893Z,6.44
2023-11-11T03:06:25.914Z,6.51
2023-11-11T03:07:28.108Z,6.70
2023-11-11T03:08:30.277Z,6.68
2023-11-11T03:09:35.141Z,6.81
2023-11-11T03:10:37.417Z,6.72
2023-11-11T03:11:40.492Z,6.65
2023-11-11T03:12:42.809Z,6.58
2023-11-11T03:13:45.831Z,6.68
2023-11-11T03:14:48.413Z,6.59
2023-11-11T03:15:50.835Z,6.73
2023-11-11T03:16:53.331Z,6.62
2023-11-11T03:17:55.627Z,6.76
2023-11-11T03:18:57.873Z,6.68
2023-11-11T03:20:00.418Z,6.66
2023-11-11T03:21:02.779Z,6.64
2023-11-11T03:22:05.164Z,6.70
2023-11-11T03:23:07.525Z,6.68
2023-11-11T03:24:10.093Z,6.78
2023-11-11T03:25:13.684Z,6.70
2023-11-11T03:26:15.929Z,6.81
2023-11-11T03:27:18.187Z,6.80
2023-11-11T03:28:20.484Z,6.76
2023-11-11T03:29:22.714Z,6.70
2023-11-11T03:30:24.898Z,6.78
2023-11-11T03:31:27.152Z,6.70
2023-11-11T03:32:30.413Z,6.63
2023-11-11T03:33:32.727Z,6.65
2023-11-11T03:34:35.025Z,6.66
2023-11-11T03:35:37.339Z,6.64
2023-11-11T03:36:39.584Z,6.79
2023-11-11T03:37:41.838Z,6.69
2023-11-11T03:38:44.175Z,6.81
2023-11-11T03:39:46.468Z,6.89
2023-11-11T03:40:48.720Z,6.83
2023-11-11T03:41:51.015Z,6.74
2023-11-11T03:42:53.250Z,6.85
2023-11-11T03:43:55.433Z,6.73
2023-11-11T03:44:57.658Z,6.89
2023-11-11T03:46:02.713Z,6.85
2023-11-11T03:47:05.013Z,6.80
2023-11-11T03:48:07.276Z,6.65
2023-11-11T03:49:09.488Z,6.77
2023-11-11T03:50:11.781Z,6.83
2023-11-11T03:51:14.066Z,6.74
2023-11-11T03:52:16.559Z,6.86
2023-11-11T03:53:19.554Z,6.76
2023-11-11T03:54:23.066Z,6.78
2023-11-11T03:55:26.080Z,6.86
2023-11-11T03:56:28.359Z,6.91
2023-11-11T03:57:30.792Z,6.77
2023-11-11T03:58:33.009Z,6.71
2023-11-11T03:59:35.992Z,6.78
2023-11-11T04:00:38.280Z,6.89
2023-11-11T04:01:40.919Z,7.01
2023-11-11T04:02:43.225Z,6.90
2023-11-11T04:03:45.927Z,6.92
2023-11-11T04:04:48.195Z,6.80
2023-11-11T04:05:50.580Z,6.88
2023-11-11T04:06:52.877Z,6.81
2023-11-11T04:07:55.247Z,6.86
2023-11-11T04:08:57.858Z,6.87
2023-11-11T04:10:00.185Z,6.78
2023-11-11T04:11:08.009Z,6.77
2023-11-11T04:12:11.188Z,6.83
2023-11-11T04:13:14.114Z,6.72
2023-11-11T04:14:16.387Z,6.75
2023-11-11T04:15:20.954Z,6.64
2023-11-11T04:16:23.267Z,6.70
2023-11-11T04:17:25.669Z,6.65
2023-11-11T04:18:28.048Z,6.75
2023-11-11T04:19:30.234Z,6.67
2023-11-11T04:20:32.477Z,6.57
2023-11-11T04:21:34.781Z,6.63
2023-11-11T04:22:36.982Z,6.53
2023-11-11T04:23:41.473Z,6.59
2023-11-11T04:24:43.889Z,6.61
2023-11-11T04:25:47.613Z,6.72
2023-11-11T04:26:49.834Z,6.73
2023-11-11T04:27:52.137Z,6.64
2023-11-11T04:28:54.582Z,6.65
2023-11-11T04:29:56.779Z,6.68
2023-11-11T04:30:58.972Z,6.65
2023-11-11T04:32:01.273Z,6.58
2023-11-11T04:33:03.718Z,6.58
2023-11-11T04:34:06.039Z,6.63
2023-11-11T04:35:08.677Z,6.63
2023-11-11T04:36:10.954Z,6.57
2023-11-11T04:37:13.442Z,6.63
2023-11-11T04:38:15.658Z,6.64
2023-11-11T04:39:17.913Z,6.60
2023-11-11T04:40:20.188Z,6.77
2023-11-11T04:41:24.732Z,6.61
2023-11-11T04:42:30.060Z,6.62
2023-11-11T04:43:36.041Z,6.64
2023-11-11T04:44:38.621Z,6.63
2023-11-11T04:45:41.238Z,6.81
2023-11-11T04:46:43.526Z,6.72
2023-11-11T04:47:45.879Z,6.78
2023-11-11T04:48:48.090Z,6.65
2023-11-11T04:49:50.661Z,6.73
2023-11-11T04:50:53.086Z,6.72
2023-11-11T04:51:55.320Z,6.82
2023-11-11T04:52:57.695Z,6.76
2023-11-11T04:53:59.982Z,6.72
2023-11-11T04:55:04.645Z,6.85
2023-11-11T04:56:07.100Z,6.60
2023-11-11T04:57:09.363Z,6.73
2023-11-11T04:58:11.546Z,6.65
2023-11-11T04:59:14.631Z,6.51
2023-11-11T05:00:18.251Z,6.52
2023-11-11T05:01:22.230Z,6.50
2023-11-11T05:02:24.692Z,6.62
2023-11-11T05:03:27.850Z,6.56
2023-11-11T05:04:30.253Z,6.43
2023-11-11T05:05:32.509Z,6.40
2023-11-11T05:06:35.657Z,6.41
2023-11-11T05:07:40.075Z,6.46
2023-11-11T05:08:42.291Z,6.35
2023-11-11T05:09:44.605Z,6.45
2023-11-11T05:10:47.010Z,6.62
2023-11-11T05:11:49.803Z,6.64
2023-11-11T05:12:54.234Z,6.57
2023-11-11T05:13:56.519Z,6.46
2023-11-11T05:14:58.730Z,6.51
2023-11-11T05:16:04.727Z,6.52
2023-11-11T05:17:08.814Z,6.57
2023-11-11T05:18:11.666Z,6.57
2023-11-11T05:19:14.490Z,6.64
2023-11-11T05:20:18.413Z,6.57
2023-11-11T05:21:20.964Z,6.50
2023-11-11T05:22:23.462Z,6.46
2023-11-11T05:23:25.733Z,6.39
2023-11-11T05:24:28.819Z,6.35
2023-11-11T05:25:31.081Z,6.32
2023-11-11T05:26:33.367Z,6.43
2023-11-11T05:27:35.644Z,6.43
2023-11-11T05:28:38.368Z,6.40
2023-11-11T05:29:41.045Z,6.49
2023-11-11T05:30:43.316Z,6.47
2023-11-11T05:31:47.441Z,6.40
2023-11-11T05:32:49.709Z,6.41
2023-11-11T05:33:52.304Z,6.37
2023-11-11T05:34:54.584Z,6.33
2023-11-11T05:36:07.481Z,6.33
2023-11-11T05:37:10.056Z,6.26
2023-11-11T05:38:12.224Z,6.24
2023-11-11T05:39:15.888Z,6.37
2023-11-11T05:40:19.948Z,6.35
2023-11-11T05:41:24.232Z,6.30
2023-11-11T05:42:26.722Z,6.35
2023-11-11T05:43:28.928Z,6.41
2023-11-11T05:44:31.329Z,6.36
2023-11-11T05:45:34.074Z,6.24
2023-11-11T05:46:37.644Z,6.23
2023-11-11T05:47:40.024Z,6.23
2023-11-11T05:48:44.965Z,6.33
2023-11-11T05:49:47.670Z,6.26
2023-11-11T05:50:50.408Z,6.34
2023-11-11T05:51:52.900Z,6.37
2023-11-11T05:52:55.229Z,6.35
2023-11-11T05:53:57.895Z,6.37
2023-11-11T05:55:00.624Z,6.39
2023-11-11T05:56:04.622Z,6.29
2023-11-11T05:57:07.122Z,6.27
2023-11-11T05:58:09.337Z,6.26
2023-11-11T05:59:11.586Z,6.26
2023-11-11T06:00:15.186Z,6.32
2023-11-11T06:01:17.880Z,6.30
2023-11-11T06:02:20.101Z,6.25
2023-11-11T06:03:22.787Z,6.43
2023-11-11T06:04:26.553Z,6.44
2023-11-11T06:05:28.963Z,6.39
2023-11-11T06:06:31.317Z,6.36
2023-11-11T06:07:33.768Z,6.36
2023-11-11T06:08:36.331Z,6.46
2023-11-11T06:09:40.548Z,6.30
2023-11-11T06:10:43.213Z,6.32
2023-11-11T06:11:46.699Z,6.32
2023-11-11T06:12:49.144Z,6.36
2023-11-11T06:13:51.443Z,6.39
2023-11-11T06:14:53.771Z,6.49
2023-11-11T06:15:56.214Z,6.49
2023-11-11T06:16:58.798Z,6.41
2023-11-11T06:18:01.052Z,6.42
2023-11-11T06:19:03.364Z,6.49
2023-11-11T06:20:07.495Z,6.35
2023-11-11T06:21:10.737Z,6.39
2023-11-11T06:22:12.993Z,6.39
2023-11-11T06:24:20.476Z,6.32
2023-11-11T06:25:23.140Z,6.35
2023-11-11T06:26:25.981Z,6.33
2023-11-11T06:27:28.273Z,6.41
2023-11-11T06:28:30.519Z,6.43
2023-11-11T06:29:32.780Z,6.36
2023-11-11T06:30:35.050Z,6.24
2023-11-11T06:31:37.404Z,6.20
2023-11-11T06:32:40.152Z,6.28
2023-11-11T06:33:42.568Z,6.29
2023-11-11T06:34:46.232Z,6.25
2023-11-11T06:35:48.415Z,6.24
2023-11-11T06:36:50.625Z,6.24
2023-11-11T06:37:53.024Z,6.16
2023-11-11T06:38:55.271Z,6.22
2023-11-11T06:39:57.465Z,6.21
2023-11-11T06:41:00.204Z,6.27
2023-11-11T06:42:02.488Z,6.26
2023-11-11T06:43:08.198Z,6.26
2023-11-11T06:44:10.592Z,6.28
2023-11-11T06:45:15.877Z,6.32
2023-11-11T06:46:18.498Z,6.36
2023-11-11T06:47:20.741Z,6.16
2023-11-11T06:48:23.022Z,6.22
2023-11-11T06:49:25.574Z,6.17
2023-11-11T06:50:27.853Z,6.14
2023-11-11T06:51:30.101Z,6.19
2023-11-11T06:52:32.491Z,6.27
2023-11-11T06:53:34.972Z,6.24
2023-11-11T06:54:37.466Z,6.29
2023-11-11T06:55:39.850Z,6.18
2023-11-11T06:56:42.584Z,6.36
2023-11-11T06:57:44.914Z,6.26
2023-11-11T06:58:47.162Z,6.28
2023-11-11T06:59:49.464Z,6.26
2023-11-11T07:00:52.141Z,6.24
2023-11-11T07:01:54.437Z,6.16
2023-11-11T07:02:57.406Z,6.09
2023-11-11T07:03:59.773Z,6.16
2023-11-11T07:05:05.726Z,6.18
2023-11-11T07:06:07.979Z,6.14
2023-11-11T07:07:12.192Z,6.18
2023-11-11T07:08:15.058Z,6.19
2023-11-11T07:09:17.382Z,6.29
2023-11-11T07:10:22.595Z,6.34
2023-11-11T07:11:25.811Z,6.29
2023-11-11T07:12:28.639Z,6.40
2023-11-11T07:13:30.914Z,6.35
2023-11-11T07:14:33.128Z,6.30
2023-11-11T07:15:37.806Z,6.27
2023-11-11T07:16:41.088Z,6.25
2023-11-11T07:17:43.764Z,6.26
2023-11-11T07:18:46.858Z,6.28
2023-11-11T07:19:49.155Z,6.37
2023-11-11T07:20:51.694Z,6.61
2023-11-11T07:23:00.408Z,6.51
2023-11-11T07:24:02.669Z,6.48
2023-11-11T07:25:06.345Z,6.47
2023-11-11T07:26:08.562Z,6.39
2023-11-11T07:27:10.777Z,6.44
2023-11-11T07:28:13.036Z,6.38
2023-11-11T07:29:15.237Z,6.34
2023-11-11T07:30:17.650Z,6.48
2023-11-11T07:31:20.467Z,6.44
2023-11-11T07:32:23.265Z,6.57
2023-11-11T07:33:26.019Z,6.44
2023-11-11T07:34:28.452Z,6.58
2023-11-11T07:35:30.725Z,6.47
2023-11-11T07:36:34.030Z,6.43
2023-11-11T07:37:36.768Z,6.54
2023-11-11T07:38:43.379Z,6.65
2023-11-11T07:39:45.798Z,6.64
2023-11-11T07:40:48.073Z,6.67
2023-11-11T07:41:51.733Z,6.62
2023-11-11T07:42:54.407Z,6.63
2023-11-11T07:44:02.240Z,6.73
2023-11-11T07:45:05.436Z,6.74
2023-11-11T07:46:07.812Z,6.67
2023-11-11T07:47:11.320Z,6.82
2023-11-11T07:48:13.956Z,7.00
2023-11-11T07:49:16.790Z,6.93
2023-11-11T07:50:20.479Z,6.88
2023-11-11T07:51:25.811Z,6.87
2023-11-11T07:52:28.038Z,6.79
2023-11-11T07:53:30.295Z,6.63
2023-11-11T07:54:32.939Z,6.61
2023-11-11T07:55:35.173Z,6.63
2023-11-11T07:56:37.652Z,7.03
2023-11-11T07:58:48.202Z,7.21
2023-11-11T07:59:50.950Z,7.18
2023-11-11T08:00:53.244Z,7.31
2023-11-11T08:01:56.811Z,7.13
2023-11-11T08:02:59.990Z,6.87
2023-11-11T08:04:02.353Z,6.96
2023-11-11T08:05:04.840Z,6.84
2023-11-11T08:06:07.056Z,7.02
2023-11-11T08:07:12.519Z,7.37
2023-11-11T08:08:16.876Z,7.64
2023-11-11T08:09:22.082Z,7.73
2023-11-11T08:10:25.676Z,7.81
2023-11-11T08:11:28.092Z,8.01
2023-11-11T08:12:30.737Z,7.94
2023-11-11T08:13:32.982Z,7.50
2023-11-11T08:14:35.354Z,7.92
2023-11-11T08:15:37.869Z,8.14
2023-11-11T08:16:40.190Z,8.40
2023-11-11T08:17:43.029Z,8.76
2023-11-11T08:18:48.396Z,8.39
2023-11-11T08:19:52.186Z,8.56
2023-11-11T08:20:54.450Z,8.43
2023-11-11T08:21:57.131Z,8.65
2023-11-11T08:22:59.409Z,8.78
2023-11-11T08:24:02.578Z,8.87
2023-11-11T08:25:06.893Z,9.13
2023-11-11T08:26:10.885Z,9.07
2023-11-11T08:27:13.304Z,9.25
2023-11-11T08:28:15.614Z,9.69
2023-11-11T08:29:17.920Z,9.25
2023-11-11T08:30:23.020Z,9.18
2023-11-11T08:31:26.008Z,8.95
2023-11-11T08:32:28.323Z,9.01
2023-11-11T08:33:30.650Z,9.38
2023-11-11T08:34:33.026Z,9.47
2023-11-11T08:35:35.955Z,9.40
2023-11-11T08:36:45.620Z,9.60
2023-11-11T08:37:53.046Z,9.24
2023-11-11T08:38:55.291Z,9.53
2023-11-11T08:39:57.550Z,9.43
2023-11-11T08:41:00.859Z,9.24
2023-11-11T08:42:04.444Z,9.27
2023-11-11T08:43:06.735Z,9.44
2023-11-11T08:44:08.993Z,9.46
2023-11-11T08:45:11.579Z,9.44
2023-11-11T08:46:13.978Z,9.65
2023-11-11T08:47:16.732Z,9.90
2023-11-11T08:48:19.119Z,9.42
2023-11-11T08:49:21.567Z,9.54
2023-11-11T08:50:23.951Z,9.35
2023-11-11T08:51:26.185Z,9.11
2023-11-11T08:52:29.184Z,8.81
2023-11-11T08:53:31.572Z,9.18
2023-11-11T08:54:33.915Z,9.18
2023-11-11T08:55:36.233Z,8.72
2023-11-11T08:56:38.454Z,8.67
2023-11-11T08:57:41.204Z,8.74
2023-11-11T08:58:43.589Z,9.05
2023-11-11T08:59:45.820Z,8.68
2023-11-11T09:00:48.170Z,8.51
2023-11-11T09:01:50.542Z,8.24
2023-11-11T09:02:54.001Z,8.39
2023-11-11T09:03:56.819Z,8.60
2023-11-11T09:04:59.966Z,8.40
2023-11-11T09:06:03.408Z,8.30
2023-11-11T09:07:05.638Z,8.41
2023-11-11T09:08:07.830Z,8.15
2023-11-11T09:09:17.491Z,8.01
2023-11-11T09:10:21.703Z,8.18
2023-11-11T09:11:23.975Z,8.14
2023-11-11T09:12:26.227Z,8.44
2023-11-11T09:13:28.492Z,8.57
2023-11-11T09:14:35.037Z,8.53
2023-11-11T09:15:38.719Z,8.39
2023-11-11T09:16:41.037Z,8.50
2023-11-11T09:17:44.094Z,8.53
2023-11-11T09:18:48.335Z,8.47
2023-11-11T09:19:51.375Z,8.19
2023-11-11T09:20:53.631Z,7.99
2023-11-11T09:21:55.944Z,8.15
2023-11-11T09:22:58.249Z,7.82
2023-11-11T09:24:00.649Z,8.03
2023-11-11T09:25:04.315Z,7.83
2023-11-11T09:26:07.713Z,8.06
2023-11-11T09:28:15.771Z,7.98
2023-11-11T09:29:19.617Z,7.95
2023-11-11T09:30:23.583Z,8.01
2023-11-11T09:31:29.171Z,7.92
2023-11-11T09:32:31.405Z,7.90
2023-11-11T09:33:33.640Z,8.37
2023-11-11T09:34:35.916Z,8.75
2023-11-11T09:35:41.107Z,8.51
2023-11-11T09:36:45.627Z,8.52
2023-11-11T09:37:49.582Z,8.54
2023-11-11T09:38:51.869Z,8.80
2023-11-11T09:39:54.837Z,8.85
2023-11-11T09:40:57.040Z,8.98
2023-11-11T09:41:59.326Z,9.59
2023-11-11T09:43:01.677Z,9.20
2023-11-11T09:44:04.953Z,9.59
2023-11-11T09:46:16.842Z,9.80
2023-11-11T09:47:23.191Z,9.70
2023-11-11T09:48:25.747Z,9.60
2023-11-11T09:49:28.835Z,9.31
2023-11-11T09:50:32.196Z,9.33
2023-11-11T09:51:35.233Z,8.92
2023-11-11T09:52:39.544Z,8.95
2023-11-11T09:53:44.211Z,9.24
2023-11-11T09:54:47.475Z,9.39
2023-11-11T09:55:49.910Z,9.36
2023-11-11T09:58:00.524Z,8.78
2023-11-11T09:59:04.348Z,8.97
2023-11-11T10:00:08.532Z,9.11
2023-11-11T10:01:15.082Z,9.60
2023-11-11T10:02:17.821Z,9.28
2023-11-11T10:03:20.254Z,9.51
2023-11-11T10:04:22.774Z,9.50
2023-11-11T10:05:25.257Z,9.55
2023-11-11T10:06:27.580Z,8.99
2023-11-11T10:07:29.784Z,9.27
2023-11-11T10:08:32.088Z,9.38
2023-11-11T10:09:34.936Z,9.47
2023-11-11T10:10:37.261Z,9.19
2023-11-11T10:11:40.278Z,9.24
2023-11-11T10:12:42.838Z,9.12
2023-11-11T10:13:45.641Z,9.29
2023-11-11T10:14:49.776Z,9.34
2023-11-11T10:16:08.669Z,8.85
2023-11-11T10:17:15.038Z,8.73
2023-11-11T10:18:17.418Z,8.84
2023-11-11T10:19:19.670Z,8.80
2023-11-11T10:20:22.498Z,9.09
2023-11-11T10:21:25.998Z,8.97
2023-11-11T10:22:28.305Z,8.80
2023-11-11T10:23:31.034Z,8.64
2023-11-11T10:24:33.524Z,8.68
2023-11-11T10:25:36.073Z,8.43
2023-11-11T10:26:42.244Z,8.52
2023-11-11T10:27:52.053Z,8.61
2023-11-11T10:28:54.312Z,8.89
2023-11-11T10:29:56.534Z,8.81
2023-11-11T10:31:17.517Z,9.02
2023-11-11T10:32:25.318Z,8.94
2023-11-11T10:33:28.044Z,8.89
2023-11-11T10:34:30.339Z,9.01
2023-11-11T10:35:32.639Z,8.93
2023-11-11T10:36:42.213Z,9.00
2023-11-11T10:37:47.007Z,9.04
2023-11-11T10:38:51.011Z,9.14
2023-11-11T10:39:53.394Z,8.75
2023-11-11T10:40:55.660Z,8.73
2023-11-11T10:41:57.954Z,8.67
2023-11-11T10:44:06.557Z,8.54
2023-11-11T10:45:11.290Z,8.55
2023-11-11T10:46:13.985Z,8.62
2023-11-11T10:47:16.433Z,8.74
2023-11-11T10:48:19.034Z,8.66
2023-11-11T10:49:23.717Z,8.60
2023-11-11T10:50:27.549Z,8.68
2023-11-11T10:51:31.562Z,8.66
2023-11-11T10:52:34.564Z,8.51
2023-11-11T10:53:39.013Z,8.28
2023-11-11T10:54:42.728Z,8.32
2023-11-11T10:55:50.767Z,8.32
2023-11-11T10:56:54.762Z,8.53
2023-11-11T10:57:57.758Z,8.47
2023-11-11T10:59:05.606Z,8.64
2023-11-11T11:00:22.269Z,8.53
2023-11-11T11:01:25.560Z,8.34
2023-11-11T11:02:28.879Z,8.50
2023-11-11T11:03:32.669Z,8.45
2023-11-11T11:04:39.674Z,8.52
2023-11-11T11:05:58.773Z,8.64
2023-11-11T11:07:10.286Z,8.52
2023-11-11T11:08:32.619Z,8.57
2023-11-11T11:09:55.121Z,8.62
2023-11-11T11:11:21.536Z,8.76
2023-11-11T11:12:42.283Z,8.86
2023-11-11T11:13:46.727Z,8.97
2023-11-11T11:14:52.933Z,9.08
2023-11-11T11:15:56.037Z,9.16
2023-11-11T11:17:01.507Z,9.25
2023-11-11T11:18:06.416Z,8.99
2023-11-11T11:19:16.026Z,8.93
2023-11-11T11:20:25.724Z,8.73
2023-11-11T11:21:29.272Z,8.65
2023-11-11T11:22:36.196Z,8.64
2023-11-11T11:23:38.852Z,8.49
2023-11-11T11:24:41.277Z,8.64
2023-11-11T11:25:45.306Z,8.82
2023-11-11T11:26:48.166Z,8.66
2023-11-11T11:28:13.099Z,8.69
2023-11-11T11:29:18.418Z,8.70
2023-11-11T11:30:27.658Z,8.96
2023-11-11T11:31:30.334Z,9.45
2023-11-11T11:32:35.517Z,9.76
2023-11-11T11:33:40.489Z,9.48
2023-11-11T11:34:44.418Z,9.73
2023-11-11T11:36:15.940Z,9.93
2023-11-11T11:37:19.749Z,9.99
2023-11-11T11:38:27.885Z,10.02
2023-11-11T11:39:51.686Z,10.09
2023-11-11T11:41:00.724Z,9.98
2023-11-11T11:42:18.868Z,9.85
2023-11-11T11:43:32.117Z,9.93
2023-11-11T11:44:34.586Z,9.71
2023-11-11T11:45:39.014Z,9.71
2023-11-11T11:46:41.516Z,9.72
2023-11-11T11:47:43.982Z,9.56
2023-11-11T11:48:46.292Z,9.50
2023-11-11T11:49:50.828Z,9.41
2023-11-11T11:51:16.638Z,9.45
2023-11-11T11:52:20.511Z,9.45
2023-11-11T11:53:22.820Z,9.75
2023-11-11T11:54:27.230Z,9.61
2023-11-11T11:55:41.933Z,9.45
2023-11-11T11:56:45.209Z,9.38
2023-11-11T11:57:57.243Z,9.37
2023-11-11T11:59:03.477Z,9.47
2023-11-11T12:00:15.024Z,9.42
2023-11-11T12:01:28.159Z,9.23
2023-11-11T12:02:33.857Z,9.19
2023-11-11T12:03:37.095Z,8.97
2023-11-11T12:04:42.262Z,8.99
2023-11-11T12:05:44.685Z,9.02
2023-11-11T12:06:48.462Z,8.89
2023-11-11T12:07:51.275Z,8.84
2023-11-11T12:08:58.400Z,8.92
2023-11-11T12:10:00.788Z,9.13
2023-11-11T12:11:03.057Z,9.40
2023-11-11T12:12:07.366Z,9.33
2023-11-11T12:13:10.674Z,9.10
2023-11-11T12:14:18.786Z,9.22
2023-11-11T12:15:21.202Z,9.52
2023-11-11T12:16:43.954Z,9.19
2023-11-11T12:17:48.479Z,9.18
2023-11-11T12:18:51.010Z,9.34
2023-11-11T12:19:58.836Z,9.50
2023-11-11T12:21:02.622Z,9.78
2023-11-11T12:22:06.917Z,9.80
2023-11-11T12:23:12.748Z,9.57
2023-11-11T12:24:17.514Z,9.82
2023-11-11T12:25:20.792Z,10.03
2023-11-11T12:26:23.084Z,9.98
2023-11-11T12:27:26.893Z,10.04
2023-11-11T12:28:29.629Z,10.12
2023-11-11T12:29:39.958Z,9.90
2023-11-11T12:30:42.779Z,9.97
2023-11-11T12:31:55.553Z,9.66
2023-11-11T12:33:06.141Z,9.98
2023-11-11T12:34:09.879Z,10.24
2023-11-11T12:35:13.474Z,10.38
2023-11-11T12:36:17.488Z,10.65
2023-11-11T12:37:23.621Z,10.69
2023-11-11T12:38:29.906Z,10.43
2023-11-11T12:39:33.453Z,10.61
2023-11-11T12:40:35.737Z,10.62
2023-11-11T12:41:38.758Z,10.81
2023-11-11T12:42:41.051Z,10.56
2023-11-11T12:43:43.440Z,10.59
2023-11-11T12:44:45.698Z,10.61
2023-11-11T12:46:02.059Z,10.81
2023-11-11T12:47:11.180Z,10.60
2023-11-11T12:48:13.763Z,10.41
2023-11-11T12:49:21.061Z,10.44
2023-11-11T12:50:33.644Z,10.18
2023-11-11T12:51:37.422Z,10.04
2023-11-11T12:52:41.026Z,9.95
2023-11-11T12:53:44.303Z,10.01
2023-11-11T12:54:46.891Z,10.20
2023-11-11T12:56:03.195Z,9.94
2023-11-11T12:57:05.465Z,9.80
2023-11-11T12:58:27.466Z,9.77
2023-11-11T12:59:29.794Z,9.80
2023-11-11T13:00:49.336Z,9.54
2023-11-11T13:01:52.129Z,9.54
2023-11-11T13:02:54.512Z,9.62
2023-11-11T13:04:10.541Z,9.42
2023-11-11T13:05:13.143Z,9.48
2023-11-11T13:06:17.161Z,9.35
2023-11-11T13:07:28.429Z,9.47
2023-11-11T13:08:30.915Z,9.53
2023-11-11T13:09:43.294Z,9.45
2023-11-11T13:10:48.226Z,9.40
2023-11-11T13:11:53.799Z,9.36
2023-11-11T13:12:56.914Z,9.44
2023-11-11T13:14:01.175Z,9.44
2023-11-11T13:15:04.686Z,9.39
2023-11-11T13:16:08.117Z,9.51
2023-11-11T13:17:10.532Z,9.70
2023-11-11T13:18:13.107Z,9.84
2023-11-11T13:19:15.907Z,9.70
2023-11-11T13:20:20.326Z,9.66
2023-11-11T13:21:27.625Z,9.58
2023-11-11T13:22:30.724Z,9.53
2023-11-11T13:23:33.101Z,9.39
2023-11-11T13:24:37.667Z,9.49
2023-11-11T13:25:40.448Z,9.78
2023-11-11T13:26:42.766Z,9.67
2023-11-11T13:27:45.024Z,9.73
2023-11-11T13:28:49.811Z,9.73
2023-11-11T13:29:52.712Z,9.81
2023-11-11T13:30:55.769Z,9.58
2023-11-11T13:31:58.399Z,9.57
2023-11-11T13:33:01.642Z,9.56
2023-11-11T13:34:04.042Z,9.61
2023-11-11T13:35:08.664Z,9.57
2023-11-11T13:36:15.804Z,9.63
2023-11-11T13:37:26.941Z,9.66
2023-11-11T13:38:32.538Z,9.65
2023-11-11T13:39:38.798Z,9.61
2023-11-11T13:40:43.694Z,9.49
2023-11-11T13:41:48.175Z,9.34
2023-11-11T13:42:50.435Z,9.37
2023-11-11T13:43:52.935Z,9.29
2023-11-11T13:44:55.163Z,9.35
2023-11-11T13:45:57.433Z,9.10
2023-11-11T13:46:59.756Z,8.97
2023-11-11T13:48:03.277Z,9.08
2023-11-11T13:49:05.566Z,9.06
2023-11-11T13:50:09.449Z,9.07
2023-11-11T13:51:11.865Z,9.02
2023-11-11T13:52:14.185Z,9.18
2023-11-11T13:53:17.026Z,9.02
2023-11-11T13:54:19.315Z,8.92
2023-11-11T13:55:22.451Z,8.85
2023-11-11T13:56:25.845Z,8.89
2023-11-11T13:57:28.142Z,8.80
2023-11-11T13:58:30.755Z,8.67
2023-11-11T13:59:33.047Z,8.71
2023-11-11T14:00:38.843Z,8.65
2023-11-11T14:01:43.688Z,8.68
2023-11-11T14:02:46.655Z,8.56
2023-11-11T14:03:49.189Z,8.63
2023-11-11T14:04:53.938Z,8.82
2023-11-11T14:05:56.269Z,8.72
2023-11-11T14:06:58.487Z,8.53
2023-11-11T14:08:03.301Z,8.37
2023-11-11T14:09:06.904Z,8.60
2023-11-11T14:10:13.123Z,8.58
2023-11-11T14:11:15.450Z,8.44
2023-11-11T14:12:20.206Z,8.48
2023-11-11T14:13:24.336Z,8.65
2023-11-11T14:14:26.523Z,8.57
2023-11-11T14:15:43.818Z,8.54
2023-11-11T14:16:48.013Z,8.75
2023-11-11T14:17:53.280Z,8.84
2023-11-11T14:18:55.635Z,8.91
2023-11-11T14:19:58.537Z,8.68
2023-11-11T14:21:01.281Z,8.55
2023-11-11T14:22:04.597Z,8.56
2023-11-11T14:23:06.910Z,8.65
2023-11-11T14:24:09.569Z,8.66
2023-11-11T14:25:14.272Z,8.66